Time;durP1;ratioP1;P1;durP2;ratioP2;P2;SDS_P1;SDS_P2;PMS_P1;PMS_P2;Temp;Humidity;BMP_temperature;BMP_pressure;BME280_temperature;BME280_humidity;BME280_pressure;Samples;Min_cycle;Max_cycle;Signal;HPM_P1;HPM_P2
2022/05/29 00:01:09;;;;;;;5.45;3.10;;;;;;;14.61;76.83;91930.34;4991745;28;20042;-74
2022/05/29 00:03:35;;;;;;;7.15;3.45;;;;;;;14.55;76.91;91923.78;4974406;28;20481;-74
2022/05/29 00:06:02;;;;;;;5.78;2.80;;;;;;;14.52;77.55;91924.38;4992663;28;20045;-74
2022/05/29 00:08:33;;;;;;;7.15;3.15;;;;;;;14.57;76.57;91926.84;4972791;28;20018;-75
2022/05/29 00:11:00;;;;;;;6.68;3.40;;;;;;;14.49;77.47;91925.78;4974838;28;20050;-74
2022/05/29 00:13:27;;;;;;;7.63;3.00;;;;;;;14.46;77.80;91925.69;4973543;28;20045;-75
2022/05/29 00:15:53;;;;;;;7.50;3.08;;;;;;;14.36;79.05;91932.88;4974176;28;20049;-74
2022/05/29 00:18:19;;;;;;;7.57;3.13;;;;;;;14.28;79.01;91938.97;4992029;28;20434;-74
2022/05/29 00:20:49;;;;;;;5.57;2.70;;;;;;;14.25;79.98;91939.63;4990888;28;20117;-75
2022/05/29 00:23:15;;;;;;;6.70;2.90;;;;;;;14.06;80.11;91941.94;4989133;28;20428;-75
2022/05/29 00:25:44;;;;;;;7.13;3.10;;;;;;;13.88;81.85;91936.00;4990380;28;20036;-75
2022/05/29 00:28:10;;;;;;;6.07;3.20;;;;;;;13.77;82.87;91922.44;4972145;28;20049;-74
2022/05/29 00:30:35;;;;;;;5.72;3.30;;;;;;;13.71;84.76;91928.97;4974169;28;20503;-74
2022/05/29 00:33:01;;;;;;;5.40;3.40;;;;;;;13.63;84.53;91927.19;4974066;28;20065;-74
2022/05/29 00:35:27;;;;;;;6.72;3.50;;;;;;;13.54;84.50;91929.84;4974292;28;20038;-74
2022/05/29 00:37:52;;;;;;;8.30;3.42;;;;;;;13.48;84.96;91934.50;4989913;28;20043;-75
2022/05/29 00:40:34;;;;;;;4.95;3.38;;;;;;;13.43;87.33;91924.19;4973352;28;20038;-75
2022/05/29 00:42:59;;;;;;;5.55;3.30;;;;;;;13.35;87.59;91927.59;4957328;28;20516;-75
2022/05/29 00:45:27;;;;;;;7.03;3.55;;;;;;;13.27;87.40;91923.16;4957859;28;20047;-74
2022/05/29 00:47:53;;;;;;;7.55;3.28;;;;;;;13.23;88.04;91914.34;4988999;28;20459;-74
2022/05/29 00:50:21;;;;;;;6.38;3.30;;;;;;;13.16;88.37;91914.06;4974240;28;20074;-74
2022/05/29 00:52:48;;;;;;;6.70;3.22;;;;;;;13.18;90.58;91909.28;4989284;28;20029;-74
2022/05/29 00:55:29;;;;;;;6.57;3.50;;;;;;;13.09;90.17;91928.47;4990770;28;20439;-75
2022/05/29 00:58:01;;;;;;;4.05;2.53;;;;;;;13.03;88.55;91911.31;4991591;28;20038;-74
2022/05/29 01:00:29;;;;;;;3.92;2.22;;;;;;;12.93;89.00;91916.94;4973978;28;20392;-74
2022/05/29 01:02:58;;;;;;;4.32;2.40;;;;;;;12.69;89.63;91915.59;4974070;28;20050;-75
2022/05/29 01:05:25;;;;;;;4.95;2.40;;;;;;;12.57;90.33;91915.47;4973457;28;20037;-74
2022/05/29 01:08:00;;;;;;;3.47;2.00;;;;;;;12.46;89.71;91903.75;4972278;28;20080;-74
2022/05/29 01:10:48;;;;;;;4.20;2.20;;;;;;;12.34;91.16;91906.22;4973265;28;20554;-75
2022/05/29 01:13:53;;;;;;;9.65;2.05;;;;;;;12.29;91.37;91907.94;4962528;28;20177;-74
2022/05/29 01:16:28;;;;;;;3.13;1.90;;;;;;;12.06;90.34;91904.69;4973441;28;20073;-74
2022/05/29 01:19:22;;;;;;;3.30;1.60;;;;;;;12.06;89.72;91902.06;4970408;28;20047;-75
2022/05/29 01:21:53;;;;;;;3.00;1.52;;;;;;;12.07;87.61;91895.75;4989709;28;20037;-74
2022/05/29 01:24:34;;;;;;;7.77;1.80;;;;;;;11.95;87.78;91877.22;4969599;28;20046;-74
2022/05/29 01:27:24;;;;;;;2.65;1.48;;;;;;;11.96;87.07;91876.16;4989243;28;20632;-74
2022/05/29 01:29:52;;;;;;;3.53;1.58;;;;;;;11.72;88.90;91867.94;4976366;28;20037;-74
2022/05/29 01:32:32;;;;;;;4.93;1.80;;;;;;;11.64;88.08;91865.00;4973670;28;20516;-75
2022/05/29 01:35:08;;;;;;;4.25;1.95;;;;;;;11.54;88.94;91857.44;4988455;28;20038;-74
2022/05/29 01:37:45;;;;;;;2.67;1.60;;;;;;;11.48;89.23;91861.25;4988444;28;20085;-74
2022/05/29 01:40:26;;;;;;;2.80;1.52;;;;;;;11.45;89.99;91848.78;4991070;28;20570;-75
2022/05/29 01:42:57;;;;;;;4.47;1.40;;;;;;;11.44;89.74;91850.63;4972902;28;20039;-74
2022/05/29 01:45:55;;;;;;;3.08;1.50;;;;;;;11.41;89.69;91850.47;4989271;28;20048;-75
2022/05/29 01:49:03;;;;;;;3.97;1.60;;;;;;;11.37;92.35;91844.28;4981623;28;20049;-75
2022/05/29 01:51:39;;;;;;;6.72;1.90;;;;;;;11.35;90.59;91849.84;4962463;28;20054;-75
2022/05/29 01:54:13;;;;;;;4.90;1.70;;;;;;;11.34;94.17;91853.53;4990290;28;20030;-75
2022/05/29 01:56:50;;;;;;;5.88;1.60;;;;;;;11.34;91.39;91850.91;4975539;28;20049;-75
2022/05/29 01:59:24;;;;;;;3.97;1.80;;;;;;;11.32;92.71;91847.81;4989405;28;20351;-76
2022/05/29 02:01:58;;;;;;;5.22;1.80;;;;;;;11.32;91.07;91855.69;4990619;28;20053;-75
2022/05/29 02:04:27;;;;;;;5.78;1.75;;;;;;;11.34;94.36;91850.16;4991029;28;20034;-76
2022/05/29 02:10:12;;;;;;;5.20;1.60;;;;;;;11.41;89.73;91851.22;4926443;29;20039;-75
2022/05/29 02:12:45;;;;;;;2.92;1.40;;;;;;;11.30;94.20;91839.50;4962352;28;20057;-75
2022/05/29 02:15:16;;;;;;;4.13;1.52;;;;;;;11.29;94.30;91835.34;4973811;28;20042;-75
2022/05/29 02:17:47;;;;;;;4.63;1.80;;;;;;;11.34;93.22;91839.66;4971953;28;20034;-75
2022/05/29 02:20:22;;;;;;;2.63;1.50;;;;;;;11.38;95.62;91830.88;4983483;28;20027;-75
2022/05/29 02:22:54;;;;;;;2.60;1.55;;;;;;;11.42;93.87;91831.06;4985822;28;20030;-75
2022/05/29 02:25:22;;;;;;;;;;;;;;;11.48;94.05;91827.19;4992877;28;20038;-75
2022/05/29 02:28:18;;;;;;;6.55;1.83;;;;;;;11.40;92.76;91823.50;4990787;28;20295;-75
2022/05/29 02:30:54;;;;;;;3.55;1.60;;;;;;;11.36;91.89;91827.03;4985536;28;20080;-75
2022/05/29 02:33:28;;;;;;;2.95;1.70;;;;;;;11.33;92.27;91822.41;4975795;28;20030;-75
2022/05/29 02:36:20;;;;;;;3.53;1.70;;;;;;;11.33;93.57;91823.19;4990925;28;20562;-75
2022/05/29 02:39:11;;;;;;;3.00;1.70;;;;;;;11.34;93.69;91813.47;4972231;28;20050;-75
2022/05/29 02:41:50;;;;;;;5.13;1.83;;;;;;;11.33;92.96;91811.94;4951176;28;20052;-75
2022/05/29 02:44:20;;;;;;;5.07;1.80;;;;;;;11.33;92.49;91812.72;4972525;28;20457;-75
2022/05/29 02:47:02;;;;;;;6.70;1.65;;;;;;;11.33;92.35;91812.72;4989501;28;20026;-75
2022/05/29 02:49:57;;;;;;;2.95;1.60;;;;;;;11.37;92.59;91805.78;4987797;28;20042;-75
2022/05/29 02:52:23;;;;;;;2.95;1.65;;;;;;;11.35;93.38;91802.69;4971691;28;20183;-75
2022/05/29 02:54:48;;;;;;;3.28;1.75;;;;;;;11.32;96.26;91800.66;4989318;28;20038;-75
2022/05/29 02:57:15;;;;;;;4.03;1.70;;;;;;;11.32;94.83;91799.91;4955966;28;20493;-75
2022/05/29 02:59:46;;;;;;;4.18;1.80;;;;;;;11.33;94.82;91799.59;4956942;28;20038;-75
2022/05/29 03:02:24;;;;;;;6.73;1.60;;;;;;;11.32;97.13;91794.66;4986394;28;20046;-75
2022/05/29 03:04:58;;;;;;;2.80;1.70;;;;;;;11.28;95.85;91791.09;4976902;28;20644;-75
2022/05/29 03:07:46;;;;;;;3.70;1.50;;;;;;;11.22;95.79;91795.72;4976426;28;20440;-75
2022/05/29 03:10:45;;;;;;;3.85;1.90;;;;;;;11.22;95.70;91785.25;4982466;28;20065;-75
2022/05/29 03:13:14;;;;;;;2.75;1.70;;;;;;;11.08;94.73;91784.59;4973024;28;20563;-75
2022/05/29 03:16:32;;;;;;;2.72;1.63;;;;;;;11.01;94.91;91787.66;4961340;28;20323;-74
2022/05/29 03:19:25;;;;;;;2.72;1.67;;;;;;;10.92;94.62;91789.50;4971220;28;20050;-75
2022/05/29 03:21:53;;;;;;;3.08;1.60;;;;;;;10.88;94.48;91788.59;4975345;28;20399;-75
2022/05/29 03:24:33;;;;;;;7.80;1.80;;;;;;;10.92;95.35;91787.66;4974440;28;20164;-75
2022/05/29 03:27:12;;;;;;;3.25;1.52;;;;;;;10.88;94.55;91783.34;4975532;28;20049;-75
2022/05/29 03:30:05;;;;;;;5.30;1.80;;;;;;;10.75;95.38;91787.63;4975505;28;20488;-75
2022/05/29 03:32:33;;;;;;;2.78;1.58;;;;;;;10.63;96.49;91783.72;4978527;28;20114;-75
2022/05/29 03:34:58;;;;;;;2.47;1.50;;;;;;;10.62;95.79;91784.03;4991161;28;20038;-75
2022/05/29 03:37:24;;;;;;;4.07;1.52;;;;;;;10.56;96.79;91791.25;4991255;28;20096;-75
2022/05/29 03:39:50;;;;;;;2.90;1.67;;;;;;;10.59;96.15;91785.41;4975859;28;20134;-75
2022/05/29 03:42:16;;;;;;;5.38;1.65;;;;;;;10.50;99.80;91784.59;4962079;28;20425;-75
2022/05/29 03:44:41;;;;;;;5.15;1.70;;;;;;;10.45;99.71;91787.38;4970553;28;20137;-75
2022/05/29 03:47:07;;;;;;;4.07;1.63;;;;;;;10.41;98.33;91779.34;4980558;28;20121;-75
2022/05/29 03:49:33;;;;;;;2.60;1.60;;;;;;;10.40;97.08;91782.25;4991669;28;20061;-75
2022/05/29 03:51:59;;;;;;;4.03;1.40;;;;;;;10.40;96.74;91792.69;4992395;28;20378;-75
2022/05/29 03:54:24;;;;;;;1.90;1.20;;;;;;;10.44;97.20;91787.66;4991771;28;20486;-75
2022/05/29 03:56:50;;;;;;;2.22;1.45;;;;;;;10.45;97.59;91792.59;4991647;28;20084;-75
2022/05/29 03:59:15;;;;;;;4.57;1.40;;;;;;;10.56;95.25;91796.50;4992107;28;20040;-75
2022/05/29 04:01:41;;;;;;;2.53;1.55;;;;;;;10.45;95.71;91795.22;4973601;28;20404;-75
2022/05/29 04:04:08;;;;;;;3.63;1.80;;;;;;;10.45;95.07;91795.22;4973995;28;20053;-75
2022/05/29 04:06:40;;;;;;;2.55;1.58;;;;;;;10.46;95.36;91796.75;4991180;28;20084;-75
2022/05/29 04:12:04;;;;;;;2.53;1.60;;;;;;;10.46;93.61;91790.75;4988724;28;20085;-75
2022/05/29 04:14:31;;;;;;;3.30;1.90;;;;;;;10.45;93.47;91784.75;4985946;28;20046;-75
2022/05/29 04:16:57;;;;;;;3.38;1.88;;;;;;;10.38;93.96;91784.38;4975123;28;20444;-75
2022/05/29 04:19:23;;;;;;;4.80;1.80;;;;;;;10.40;94.58;91779.63;4975274;28;20069;-75
2022/05/29 04:21:49;;;;;;;3.10;1.75;;;;;;;10.41;94.52;91776.72;4975007;28;20348;-74
2022/05/29 04:24:20;;;;;;;3.47;2.00;;;;;;;10.43;95.96;91776.41;4957552;28;20046;-75
2022/05/29 04:26:49;;;;;;;3.53;2.00;;;;;;;10.43;96.40;91776.41;4974046;28;20122;-75
2022/05/29 04:29:16;;;;;;;3.63;1.90;;;;;;;10.46;94.43;91772.44;4956538;28;20077;-75
2022/05/29 04:34:26;;;;;;;4.20;2.10;;;;;;;10.46;94.34;91772.44;4958471;28;20038;-75
2022/05/29 04:36:52;;;;;;;3.50;1.90;;;;;;;10.46;94.28;91781.03;4990505;28;20060;-75
2022/05/29 04:39:17;;;;;;;6.00;1.90;;;;;;;10.44;94.08;91777.94;4976038;28;20042;-75
2022/05/29 04:41:43;;;;;;;3.10;1.90;;;;;;;10.51;97.03;91780.91;4959142;28;20096;-75
2022/05/29 04:44:08;;;;;;;3.15;1.90;;;;;;;10.49;95.29;91780.47;4975623;28;20540;-74
2022/05/29 04:46:34;;;;;;;3.08;1.70;;;;;;;10.50;94.79;91787.22;4990728;28;20038;-75
2022/05/29 04:49:00;;;;;;;2.92;1.80;;;;;;;10.52;94.40;91787.69;4973596;28;20046;-75
2022/05/29 04:51:25;;;;;;;2.97;1.85;;;;;;;10.52;94.68;91787.69;4962798;28;20452;-75
2022/05/29 04:53:51;;;;;;;2.70;1.63;;;;;;;10.55;92.53;91786.31;4989397;28;20072;-75
2022/05/29 04:56:16;;;;;;;3.08;1.80;;;;;;;10.49;92.00;91785.69;4962735;28;20043;-75
2022/05/29 04:58:42;;;;;;;3.50;1.83;;;;;;;10.50;93.05;91782.00;4977436;28;20043;-75
2022/05/29 05:01:07;;;;;;;2.95;1.73;;;;;;;10.53;93.79;91784.00;4972884;28;20385;-75
2022/05/29 05:03:33;;;;;;;4.03;2.08;;;;;;;10.54;94.07;91785.53;4991261;28;20034;-75
2022/05/29 05:05:59;;;;;;;3.00;1.80;;;;;;;10.57;96.33;91786.78;4989271;28;20065;-76
2022/05/29 05:08:24;;;;;;;3.75;1.90;;;;;;;10.61;96.97;91787.72;4988444;28;20058;-79
2022/05/29 05:10:50;;;;;;;3.08;1.85;;;;;;;10.68;95.22;91784.66;4973062;28;20066;-75
2022/05/29 05:13:16;;;;;;;3.25;1.70;;;;;;;10.63;94.80;91785.59;4966260;28;20065;-76
2022/05/29 05:15:42;;;;;;;4.40;2.17;;;;;;;10.65;94.65;91787.88;4991749;28;20026;-76
2022/05/29 05:18:07;;;;;;;4.43;2.30;;;;;;;10.58;95.90;91781.25;4991625;28;20026;-76
2022/05/29 05:20:33;;;;;;;6.32;2.40;;;;;;;10.54;95.54;91780.31;4989510;28;20527;-75
2022/05/29 05:22:59;;;;;;;3.90;2.50;;;;;;;10.53;95.68;91780.59;4970728;28;20062;-76
2022/05/29 05:25:25;;;;;;;4.47;2.67;;;;;;;10.54;95.44;91772.47;4971868;28;20046;-76
2022/05/29 05:27:51;;;;;;;5.65;2.53;;;;;;;10.54;95.22;91769.09;4972179;28;20026;-75
2022/05/29 05:30:17;;;;;;;3.70;2.33;;;;;;;10.50;95.09;91776.75;4972630;28;20040;-78
2022/05/29 05:32:42;;;;;;;3.60;2.20;;;;;;;10.47;95.08;91772.13;4973049;28;20050;-76
2022/05/29 05:35:08;;;;;;;3.55;2.13;;;;;;;10.47;95.85;91771.34;4981830;28;20039;-76
2022/05/29 05:37:36;;;;;;;3.63;1.80;;;;;;;10.43;96.16;91765.19;4989691;28;20070;-78
2022/05/29 05:40:04;;;;;;;5.78;1.88;;;;;;;10.49;97.28;91771.81;4985655;28;20042;-80
2022/05/29 05:42:49;;;;;;;3.47;1.95;;;;;;;10.43;95.96;91767.81;4968458;28;20065;-78
2022/05/29 05:45:15;;;;;;;3.53;1.80;;;;;;;10.45;96.00;91774.28;4972460;28;20026;-78
2022/05/29 05:47:40;;;;;;;2.80;1.55;;;;;;;10.42;96.73;91774.88;4992757;28;20148;-77
2022/05/29 05:50:09;;;;;;;3.08;1.90;;;;;;;10.46;96.56;91775.81;4993221;28;20141;-78
2022/05/29 05:52:35;;;;;;;3.47;1.80;;;;;;;10.51;96.76;91767.81;4968336;28;20035;-77
2022/05/29 05:55:04;;;;;;;2.75;1.60;;;;;;;10.49;96.87;91769.19;4986998;28;20038;-78
2022/05/29 05:57:30;;;;;;;3.78;1.70;;;;;;;10.48;96.51;91768.44;4974705;28;20108;-78
2022/05/29 05:59:56;;;;;;;3.13;2.00;;;;;;;10.50;96.66;91763.66;4943230;28;20134;-76
2022/05/29 06:02:23;;;;;;;2.65;1.60;;;;;;;10.51;96.95;91767.81;4975025;28;20025;-77
2022/05/29 06:04:49;;;;;;;2.45;1.48;;;;;;;10.54;97.90;91771.69;4993315;28;20042;-77
2022/05/29 06:07:15;;;;;;;1.50;1.10;;;;;;;10.58;97.11;91773.41;4990994;28;20018;-78
2022/05/29 06:09:45;;;;;;;2.15;1.23;;;;;;;10.59;98.17;91771.56;4992560;28;20480;-76
2022/05/29 06:12:11;;;;;;;3.65;0.98;;;;;;;10.63;98.25;91769.88;4967724;28;20033;-79
2022/05/29 06:14:37;;;;;;;0.93;0.80;;;;;;;10.65;99.26;91772.97;4992617;28;20034;-79
2022/05/29 06:17:04;;;;;;;0.68;0.68;;;;;;;10.74;98.26;91773.75;4977524;28;20042;-78
2022/05/29 06:19:30;;;;;;;1.15;0.70;;;;;;;10.67;96.93;91780.50;4946560;28;20536;-80
2022/05/29 06:21:55;;;;;;;1.52;0.93;;;;;;;10.64;95.67;91774.03;4963537;28;20046;-79
2022/05/29 06:24:21;;;;;;;0.80;0.60;;;;;;;10.69;94.77;91775.72;4957116;28;20062;-79
2022/05/29 06:26:47;;;;;;;0.60;0.60;;;;;;;10.58;96.20;91776.03;4973968;28;20038;-79
2022/05/29 06:29:12;;;;;;;0.70;0.70;;;;;;;10.52;97.19;91772.00;4975273;28;20129;-79
2022/05/29 06:31:38;;;;;;;0.63;0.60;;;;;;;10.52;96.70;91785.06;4992983;28;20045;-79
2022/05/29 06:34:03;;;;;;;1.08;0.55;;;;;;;10.53;96.37;91775.38;4962146;28;20042;-76
2022/05/29 06:36:29;;;;;;;1.25;0.50;;;;;;;10.53;96.05;91775.38;4982749;28;20209;-78
2022/05/29 06:38:57;;;;;;;0.40;0.40;;;;;;;10.55;95.91;91781.09;4956290;28;20147;-76
2022/05/29 06:41:24;;;;;;;0.50;0.50;;;;;;;10.61;94.57;91779.88;4973385;28;20118;-77
2022/05/29 06:43:51;;;;;;;0.95;0.50;;;;;;;10.56;94.95;91775.56;4974429;28;20543;-77
2022/05/29 06:46:17;;;;;;;0.60;0.60;;;;;;;10.54;95.33;91782.94;4972137;28;20033;-77
2022/05/29 06:48:43;;;;;;;0.52;0.50;;;;;;;10.63;94.99;91790.81;4976156;28;20085;-76
2022/05/29 06:51:16;;;;;;;1.90;0.90;;;;;;;10.61;92.26;91783.25;4955576;29;20039;-76
2022/05/29 06:53:42;;;;;;;1.50;1.10;;;;;;;10.55;92.62;91789.69;4957284;28;20037;-76
2022/05/29 06:56:09;;;;;;;2.67;1.38;;;;;;;10.46;93.03;91796.75;4954870;29;20043;-76
2022/05/29 06:58:35;;;;;;;2.00;1.10;;;;;;;10.43;93.69;91784.28;4955227;29;20031;-76
2022/05/29 07:09:18;;;;;;;2.78;1.50;;;;;;;10.28;94.45;91784.63;4954838;28;20525;-76
2022/05/29 07:11:46;;;;;;;1.73;1.13;;;;;;;10.29;98.00;91788.81;4969459;28;20054;-77
2022/05/29 07:14:12;;;;;;;2.28;1.30;;;;;;;10.34;95.13;91799.16;4973976;28;20038;-77
2022/05/29 07:16:38;;;;;;;5.13;1.05;;;;;;;10.47;92.92;91798.31;4975180;28;20378;-76
2022/05/29 07:19:04;;;;;;;2.85;1.42;;;;;;;10.30;93.62;91800.81;4976505;28;20121;-77
2022/05/29 07:21:35;;;;;;;3.90;1.50;;;;;;;10.27;94.50;91804.00;4974362;28;20038;-77
2022/05/29 07:24:01;;;;;;;2.90;1.38;;;;;;;10.42;93.78;91801.03;4976105;28;20382;-75
2022/05/29 07:26:27;;;;;;;3.45;1.42;;;;;;;10.33;96.72;91808.06;4975140;28;20057;-77
2022/05/29 07:28:52;;;;;;;2.72;1.50;;;;;;;10.32;95.49;91807.31;4975862;28;20031;-77
2022/05/29 07:31:18;;;;;;;3.90;1.65;;;;;;;10.30;94.12;91813.91;4958346;28;20047;-77
2022/05/29 07:33:44;;;;;;;5.57;1.75;;;;;;;10.30;93.58;91809.44;4975457;28;20121;-77
2022/05/29 07:36:11;;;;;;;7.03;1.65;;;;;;;10.19;95.07;91815.97;4975277;28;20493;-76
2022/05/29 07:38:38;;;;;;;2.92;1.73;;;;;;;10.05;95.51;91815.28;4990473;28;20057;-77
2022/05/29 07:43:18;;;;;;;2.78;1.48;;;;;;;10.14;94.01;91811.63;4962282;28;20042;-77
2022/05/29 07:43:52;;;;;;;5.93;1.90;;;;;;;10.01;94.81;91815.84;4976554;28;20582;-77
2022/05/29 07:46:18;;;;;;;4.03;2.00;;;;;;;9.99;96.79;91809.38;4976449;28;20109;-77
2022/05/29 07:48:44;;;;;;;5.88;1.95;;;;;;;10.06;96.50;91819.44;4976842;28;20039;-77
2022/05/29 07:51:10;;;;;;;3.80;1.90;;;;;;;10.15;96.76;91809.78;4993915;28;20042;-77
2022/05/29 07:53:37;;;;;;;5.20;2.30;;;;;;;10.25;95.88;91806.94;4976323;28;20038;-77
2022/05/29 07:56:03;;;;;;;3.42;1.90;;;;;;;10.25;95.37;91800.94;4976720;28;20022;-77
2022/05/29 07:58:29;;;;;;;5.40;2.40;;;;;;;10.27;94.80;91812.63;4993803;28;20088;-77
2022/05/29 08:00:55;;;;;;;6.13;2.13;;;;;;;10.31;95.74;91810.22;4976184;28;20501;-76
2022/05/29 08:03:22;;;;;;;4.57;2.03;;;;;;;10.28;93.97;91810.78;4975827;28;20045;-76
2022/05/29 08:05:48;;;;;;;5.15;1.90;;;;;;;10.27;93.26;91810.03;4993598;28;20544;-76
2022/05/29 08:08:13;;;;;;;4.55;2.45;;;;;;;10.20;93.22;91807.84;4960037;28;20037;-76
2022/05/29 08:10:42;;;;;;;5.85;2.05;;;;;;;10.21;95.70;91805.97;4993542;28;20493;-75
2022/05/29 08:13:08;;;;;;;6.10;2.17;;;;;;;10.22;93.66;91807.50;4993151;28;20038;-75
2022/05/29 08:15:36;;;;;;;5.60;2.03;;;;;;;10.24;94.93;91810.59;4993430;28;20042;-76
2022/05/29 08:18:03;;;;;;;5.30;2.35;;;;;;;10.19;93.09;91814.13;4992948;28;20030;-76
2022/05/29 08:20:29;;;;;;;5.43;2.20;;;;;;;10.13;92.32;91804.88;4993404;28;20512;-76
2022/05/29 08:22:55;;;;;;;6.57;2.55;;;;;;;10.12;93.76;91805.94;4992809;28;20049;-76
2022/05/29 08:30:52;;;;;;;6.60;2.47;;;;;;;10.09;93.35;91803.16;4992853;28;20038;-76
2022/05/29 08:33:17;;;;;;;8.70;2.40;;;;;;;10.10;93.25;91808.06;4975508;28;20373;-76
2022/05/29 08:35:46;;;;;;;5.40;2.15;;;;;;;10.15;92.52;91807.94;4992397;28;20077;-76
2022/05/29 08:38:13;;;;;;;8.13;2.70;;;;;;;10.26;91.91;91810.31;4992376;28;20093;-76
2022/05/29 08:40:51;;;;;;;5.93;2.65;;;;;;;10.21;92.16;91813.84;4992830;28;20043;-76
2022/05/29 08:43:36;;;;;;;7.88;2.83;;;;;;;10.11;94.51;91811.44;4992587;28;20053;-76
2022/05/29 08:46:12;;;;;;;4.35;2.53;;;;;;;10.15;94.98;91815.78;4992470;28;20480;-76
2022/05/29 08:48:38;;;;;;;5.25;2.50;;;;;;;10.19;94.32;91814.13;4992685;28;20169;-76
2022/05/29 08:51:19;;;;;;;6.15;2.50;;;;;;;10.20;94.89;91815.69;4975247;28;20500;-76
2022/05/29 08:53:59;;;;;;;8.50;2.75;;;;;;;10.23;92.45;91813.53;4975104;28;20416;-76
2022/05/29 08:56:51;;;;;;;5.65;2.65;;;;;;;10.26;92.16;91815.53;4971005;28;20031;-76
2022/05/29 08:59:21;;;;;;;4.13;2.40;;;;;;;10.28;91.18;91813.41;4972773;28;20034;-75
2022/05/29 09:02:18;;;;;;;5.32;2.40;;;;;;;10.31;90.27;91812.81;4955518;28;20425;-75
2022/05/29 09:04:56;;;;;;;4.90;2.55;;;;;;;10.32;92.23;91815.16;4940272;28;20109;-76
2022/05/29 09:07:23;;;;;;;4.43;2.53;;;;;;;10.35;92.67;91811.16;4990644;28;20038;-76
2022/05/29 09:10:06;;;;;;;6.30;2.47;;;;;;;10.42;92.16;91814.09;4975030;28;20518;-76
2022/05/29 09:12:40;;;;;;;6.40;3.20;;;;;;;10.51;94.59;91804.44;4974703;28;20489;-76
2022/05/29 09:15:15;;;;;;;9.98;2.42;;;;;;;10.62;92.58;91804.97;4974702;28;20039;-76
2022/05/29 09:17:49;;;;;;;6.43;3.05;;;;;;;10.71;93.98;91808.38;4974425;28;20030;-76
2022/05/29 09:20:46;;;;;;;6.00;3.08;;;;;;;10.70;92.05;91809.47;4974735;28;20452;-75
2022/05/29 09:23:17;;;;;;;6.05;2.95;;;;;;;10.75;93.55;91809.31;4974449;28;20038;-76
2022/05/29 09:25:43;;;;;;;12.65;2.90;;;;;;;10.81;91.13;91809.97;4991826;28;20100;-76
2022/05/29 09:28:31;;;;;;;5.95;3.25;;;;;;;10.89;94.27;91808.44;4958324;28;20096;-76
2022/05/29 09:31:30;;;;;;;4.45;2.70;;;;;;;10.98;92.11;91804.75;4977452;28;20488;-76
2022/05/29 09:33:55;;;;;;;6.95;2.90;;;;;;;11.02;91.50;91808.31;4969462;28;20058;-76
2022/05/29 09:36:24;;;;;;;9.10;2.88;;;;;;;11.07;90.32;91802.16;4974463;28;20085;-76
2022/05/29 09:38:56;;;;;;;7.30;2.70;;;;;;;11.06;89.35;91808.50;4974092;28;20042;-76
2022/05/29 09:41:41;;;;;;;5.13;2.95;;;;;;;11.08;89.87;91800.31;4990697;28;20038;-76
2022/05/29 09:44:19;;;;;;;6.82;3.20;;;;;;;11.06;88.82;91807.72;4992027;28;20089;-75
2022/05/29 09:46:47;;;;;;;8.15;3.38;;;;;;;11.09;93.09;91807.13;4974556;28;20026;-76
2022/05/29 09:52:23;;;;;;;6.45;3.03;;;;;;;10.96;92.41;91809.53;4993696;28;20050;-76
2022/05/29 09:54:56;;;;;;;7.07;2.95;;;;;;;11.06;91.07;91805.88;4980156;28;20034;-76
2022/05/29 09:57:27;;;;;;;7.20;2.97;;;;;;;11.12;92.28;91812.50;4984258;28;20500;-76
2022/05/29 10:00:05;;;;;;;8.57;3.63;;;;;;;11.22;94.48;91811.47;4974576;28;20440;-75
2022/05/29 10:02:40;;;;;;;7.93;3.30;;;;;;;11.33;92.20;91802.22;4991902;28;20041;-76
2022/05/29 10:05:28;;;;;;;6.65;3.30;;;;;;;11.54;92.15;91806.88;4992169;28;20042;-76
2022/05/29 10:07:57;;;;;;;7.03;3.83;;;;;;;11.74;90.16;91803.63;4974475;28;20037;-76
2022/05/29 10:10:25;;;;;;;7.70;3.45;;;;;;;11.94;89.69;91796.25;4977747;28;20030;-76
2022/05/29 10:12:57;;;;;;;10.80;5.35;;;;;;;12.08;88.50;91796.81;4977942;28;20085;-76
2022/05/29 10:15:26;;;;;;;18.80;9.98;;;;;;;12.23;88.14;91795.56;4962079;28;20125;-75
2022/05/29 10:18:12;;;;;;;6.40;3.78;;;;;;;12.23;88.43;91793.72;4995329;28;20084;-76
2022/05/29 10:20:47;;;;;;;8.82;3.38;;;;;;;12.21;89.20;91798.50;4995164;28;20477;-76
2022/05/29 10:23:31;;;;;;;6.40;2.95;;;;;;;12.39;86.12;91791.34;4995161;28;20113;-76
2022/05/29 10:26:03;;;;;;;6.63;2.70;;;;;;;12.64;87.65;91784.47;4977911;28;20094;-76
2022/05/29 10:28:35;;;;;;;5.72;2.60;;;;;;;12.78;86.46;91786.13;4964158;28;20026;-76
2022/05/29 10:31:04;;;;;;;5.43;2.70;;;;;;;12.90;84.97;91787.00;4998929;28;20042;-76
2022/05/29 10:33:33;;;;;;;5.30;2.88;;;;;;;12.99;85.40;91784.31;4997155;28;20031;-76
2022/05/29 10:36:11;;;;;;;6.95;3.03;;;;;;;13.24;84.49;91781.84;4977653;28;20113;-76
2022/05/29 10:38:37;;;;;;;4.32;2.40;;;;;;;13.32;82.79;91776.56;4994739;28;20046;-76
2022/05/29 10:41:05;;;;;;;7.88;3.28;;;;;;;13.48;83.50;91778.63;4977278;28;20065;-76
2022/05/29 10:43:44;;;;;;;6.10;3.03;;;;;;;13.64;85.67;91765.66;4978743;28;20034;-76
2022/05/29 10:46:22;;;;;;;7.65;3.30;;;;;;;13.64;83.77;91771.69;4996661;28;20129;-77
2022/05/29 10:49:13;;;;;;;7.15;3.90;;;;;;;13.79;86.67;91772.97;4978966;28;20402;-76
2022/05/29 10:52:02;;;;;;;10.68;2.70;;;;;;;14.13;83.30;91760.59;4997897;28;20170;-76
2022/05/29 10:54:49;;;;;;;4.15;2.40;;;;;;;14.48;79.87;91760.22;4997803;28;20034;-76
2022/05/29 10:57:27;;;;;;;5.85;2.50;;;;;;;14.56;78.17;91762.00;4978230;28;20062;-76
2022/05/29 11:00:04;;;;;;;5.35;2.90;;;;;;;14.41;78.48;91763.41;4996885;28;20042;-77
2022/05/29 11:06:01;;;;;;;1294.15;31.75;;;;;;;13.15;84.64;91766.16;4977685;28;20129;-76
2022/05/29 11:08:46;;;;;;;1999.90;54.47;;;;;;;12.43;89.05;91760.00;4977217;28;20145;-75
2022/05/29 11:11:41;;;;;;;1545.07;35.08;;;;;;;11.85;91.77;91764.75;4977343;28;20073;-76
2022/05/29 11:14:25;;;;;;;1453.25;33.95;;;;;;;11.71;94.46;91757.06;4948647;28;20077;-76
2022/05/29 11:16:54;;;;;;;25.70;6.10;;;;;;;12.16;91.60;91753.28;4976643;28;20074;-76
2022/05/29 11:19:28;;;;;;;422.48;13.73;;;;;;;12.11;92.79;91753.47;4959091;28;20022;-76
2022/05/29 11:22:10;;;;;;;9.25;5.28;;;;;;;12.04;90.04;91753.94;4979029;28;20038;-76
2022/05/29 11:24:42;;;;;;;58.92;7.28;;;;;;;12.02;92.19;91750.84;4994326;28;20066;-76
2022/05/29 11:27:20;;;;;;;698.20;18.25;;;;;;;11.79;92.10;91748.41;4994409;28;20391;-76
2022/05/29 11:29:49;;;;;;;398.40;14.38;;;;;;;11.60;96.19;91743.50;4994239;28;20133;-76
2022/05/29 11:32:37;;;;;;;451.30;15.07;;;;;;;11.43;95.99;91751.34;4994165;28;20034;-76
2022/05/29 11:35:40;;;;;;;662.50;20.42;;;;;;;11.55;95.57;91750.72;4976596;28;20500;-76
2022/05/29 11:38:44;;;;;;;60.05;8.18;;;;;;;11.86;93.88;91740.81;4987017;28;20049;-76
2022/05/29 11:41:34;;;;;;;10.25;5.57;;;;;;;12.40;93.45;91742.25;4953540;28;20053;-76
2022/05/29 11:44:07;;;;;;;8.90;4.40;;;;;;;13.02;92.33;91746.91;5013625;28;20411;-76
2022/05/29 11:53:03;;;;;;;5.63;2.63;;;;;;;14.87;77.21;91726.47;5013227;28;20033;-76
2022/05/29 11:55:35;;;;;;;6.72;2.78;;;;;;;14.82;77.19;91722.19;5011305;28;20081;-75
2022/05/29 11:58:04;;;;;;;4.95;2.40;;;;;;;14.83;75.75;91723.72;5012915;28;20034;-76
2022/05/29 12:00:38;;;;;;;6.38;2.88;;;;;;;15.12;80.75;91724.56;4995835;28;20103;-75
2022/05/29 12:03:39;;;;;;;5.28;2.55;;;;;;;15.40;70.17;91720.13;4995420;28;20511;-76
2022/05/29 12:06:21;;;;;;;7.30;2.63;;;;;;;15.74;75.74;91722.56;4995286;28;20034;-76
2022/05/29 12:09:16;;;;;;;7.10;2.65;;;;;;;15.73;72.84;91721.03;4995008;28;20148;-76
2022/05/29 12:12:10;;;;;;;6.88;2.22;;;;;;;15.86;69.84;91722.50;4993115;28;20030;-76
2022/05/29 12:14:56;;;;;;;12.18;2.65;;;;;;;16.03;68.44;91724.88;4975792;28;20057;-75
2022/05/29 12:17:38;;;;;;;14.20;3.60;;;;;;;15.94;70.27;91712.91;4992974;28;20092;-75
2022/05/29 12:20:23;;;;;;;4.57;2.33;;;;;;;15.74;69.96;91712.03;5011985;28;20080;-76
2022/05/29 12:22:57;;;;;;;5.25;3.10;;;;;;;15.48;71.30;91710.53;5012606;28;20037;-76
2022/05/29 12:25:34;;;;;;;5.05;2.83;;;;;;;15.71;70.46;91708.16;4995243;28;20087;-76
2022/05/29 12:28:05;;;;;;;5.20;2.75;;;;;;;15.98;71.65;91703.97;4994852;28;20448;-76
2022/05/29 12:30:45;;;;;;;8.02;3.38;;;;;;;16.01;73.63;91702.56;5012341;28;20487;-76
2022/05/29 12:33:23;;;;;;;7.85;3.40;;;;;;;15.78;72.89;91704.94;5011587;28;20029;-76